DAAT

Details ICAO DAAT (TMR)
Name TAMANRASSET
Region Algeria
Timezone Africa/Algiers (UTC+1.0)
Plans Departing 133
Arriving 150
Stats Elevation 4,518 ft / 1,377 m (AMSL)
Location 22.810384° 5.444403°
Runways 2
Magnetic Variation 0.601° E
Sunrise 2017-12-14 06:11:53 UTC / 2017-12-14 07:11:53 Local
Sunset 2017-12-14 16:56:43 UTC / 2017-12-14 17:56:43 Local
Advertisement - Login to hide

Runways

ID Width Length Bearing (true) Bearing (mag) Surface Threshold Offset Overrun Length
02 148 ft / 45 m 11,884 ft / 3,622 m 22.21° 21.61° Asphalt 0 ft / 0 m 0 ft / 0 m
08 148 ft / 45 m 10,169 ft / 3,099 m 81.74° 81.14° Asphalt 0 ft / 0 m 0 ft / 0 m
20 148 ft / 45 m 11,884 ft / 3,622 m 202.22° 201.62° Asphalt 0 ft / 0 m 0 ft / 0 m
26 148 ft / 45 m 10,169 ft / 3,099 m 261.75° 261.15° Asphalt 0 ft / 0 m 0 ft / 0 m

Map

Weather


0- 5 10 15 20 25 30 35+ Temperature / ° C

Clouds and Precipitation
Forecast for 2017-12-14 18:00 UTC. Updated 25 minutes ago

Ground ~20,000 ft ~40,000 ft Winds

METAR

DAAT 141330Z 25006KT 9999 FEW040CB SCT046TCU 19/11 Q1025

TAF

TAF DAAT 141100Z 1412/1512 08010KT 9999 SCT046 SCT100 TEMPO 1412/1420 FEW040CB SCT046TCU PROB30 TEMPO 1412/1418 14015G25KT 5000 -TSRA FEW036CB

Frequencies

Tower 118.10 MHz TWR
Tower 119.70 MHz TWR
Warning: Do not use this data for real-world aviation or navigation. No guarantee of current accuracy is given.